sensor_id;sensor_type;location;lat;lon;timestamp;P1;durP1;ratioP1;P2;durP2;ratioP2
31126;SDS011;17775;57.948;12.514;2022-09-29T00:00:48;2.90;;;1.95;;
31126;SDS011;17775;57.948;12.514;2022-09-29T00:03:15;3.63;;;1.38;;
31126;SDS011;17775;57.948;12.514;2022-09-29T00:05:46;4.38;;;1.65;;
31126;SDS011;17775;57.948;12.514;2022-09-29T00:08:14;7.80;;;2.10;;
31126;SDS011;17775;57.948;12.514;2022-09-29T00:10:40;3.45;;;1.83;;
31126;SDS011;17775;57.948;12.514;2022-09-29T00:13:07;4.55;;;1.73;;
31126;SDS011;17775;57.948;12.514;2022-09-29T00:15:33;3.05;;;1.88;;
31126;SDS011;17775;57.948;12.514;2022-09-29T00:17:59;4.18;;;1.60;;
31126;SDS011;17775;57.948;12.514;2022-09-29T00:20:39;3.85;;;1.55;;
31126;SDS011;17775;57.948;12.514;2022-09-29T00:23:05;4.25;;;1.85;;
31126;SDS011;17775;57.948;12.514;2022-09-29T00:25:32;3.28;;;1.90;;
31126;SDS011;17775;57.948;12.514;2022-09-29T00:27:58;4.53;;;1.70;;
31126;SDS011;17775;57.948;12.514;2022-09-29T00:30:25;3.65;;;1.70;;
31126;SDS011;17775;57.948;12.514;2022-09-29T00:32:51;3.63;;;2.15;;
31126;SDS011;17775;57.948;12.514;2022-09-29T00:35:18;3.47;;;2.08;;
31126;SDS011;17775;57.948;12.514;2022-09-29T00:37:44;3.28;;;2.08;;
31126;SDS011;17775;57.948;12.514;2022-09-29T00:40:11;4.25;;;1.85;;
31126;SDS011;17775;57.948;12.514;2022-09-29T00:42:37;3.38;;;2.20;;
31126;SDS011;17775;57.948;12.514;2022-09-29T00:47:39;6.38;;;2.20;;
31126;SDS011;17775;57.948;12.514;2022-09-29T00:52:39;4.63;;;2.22;;
31126;SDS011;17775;57.948;12.514;2022-09-29T00:55:13;4.00;;;2.05;;
31126;SDS011;17775;57.948;12.514;2022-09-29T00:57:57;4.47;;;2.17;;
31126;SDS011;17775;57.948;12.514;2022-09-29T01:00:24;3.05;;;2.15;;
31126;SDS011;17775;57.948;12.514;2022-09-29T01:02:53;3.88;;;2.05;;
31126;SDS011;17775;57.948;12.514;2022-09-29T01:07:48;3.10;;;1.90;;
31126;SDS011;17775;57.948;12.514;2022-09-29T01:10:16;3.33;;;1.92;;
31126;SDS011;17775;57.948;12.514;2022-09-29T01:12:42;7.18;;;2.20;;
31126;SDS011;17775;57.948;12.514;2022-09-29T01:15:10;3.78;;;2.00;;
31126;SDS011;17775;57.948;12.514;2022-09-29T01:17:38;4.88;;;2.17;;
31126;SDS011;17775;57.948;12.514;2022-09-29T01:20:15;4.40;;;2.33;;
31126;SDS011;17775;57.948;12.514;2022-09-29T01:36:02;6.43;;;2.45;;
31126;SDS011;17775;57.948;12.514;2022-09-29T01:38:50;3.50;;;2.03;;
31126;SDS011;17775;57.948;12.514;2022-09-29T01:46:14;3.78;;;2.20;;
31126;SDS011;17775;57.948;12.514;2022-09-29T01:48:43;5.43;;;2.45;;
31126;SDS011;17775;57.948;12.514;2022-09-29T01:51:14;7.43;;;2.42;;
31126;SDS011;17775;57.948;12.514;2022-09-29T01:53:47;4.43;;;2.25;;
31126;SDS011;17775;57.948;12.514;2022-09-29T01:56:16;3.97;;;1.95;;
31126;SDS011;17775;57.948;12.514;2022-09-29T01:58:53;4.38;;;1.95;;
31126;SDS011;17775;57.948;12.514;2022-09-29T02:01:22;3.90;;;2.00;;
31126;SDS011;17775;57.948;12.514;2022-09-29T02:03:56;8.00;;;2.05;;
31126;SDS011;17775;57.948;12.514;2022-09-29T02:06:32;4.47;;;2.10;;
31126;SDS011;17775;57.948;12.514;2022-09-29T02:09:02;3.90;;;2.13;;
31126;SDS011;17775;57.948;12.514;2022-09-29T02:11:30;3.03;;;1.80;;
31126;SDS011;17775;57.948;12.514;2022-09-29T02:16:28;6.53;;;2.22;;
31126;SDS011;17775;57.948;12.514;2022-09-29T02:19:00;4.05;;;2.15;;
31126;SDS011;17775;57.948;12.514;2022-09-29T02:21:28;3.10;;;2.00;;
31126;SDS011;17775;57.948;12.514;2022-09-29T02:23:54;4.72;;;2.20;;
31126;SDS011;17775;57.948;12.514;2022-09-29T02:26:21;3.28;;;2.20;;
31126;SDS011;17775;57.948;12.514;2022-09-29T02:28:49;5.25;;;2.50;;
31126;SDS011;17775;57.948;12.514;2022-09-29T02:31:18;5.57;;;2.58;;
31126;SDS011;17775;57.948;12.514;2022-09-29T02:33:44;5.32;;;2.20;;
31126;SDS011;17775;57.948;12.514;2022-09-29T02:38:49;3.95;;;2.25;;
31126;SDS011;17775;57.948;12.514;2022-09-29T02:51:30;4.22;;;2.20;;
31126;SDS011;17775;57.948;12.514;2022-09-29T02:59:18;5.13;;;2.38;;
31126;SDS011;17775;57.948;12.514;2022-09-29T03:01:49;3.78;;;2.33;;
31126;SDS011;17775;57.948;12.514;2022-09-29T03:04:16;5.30;;;2.92;;
31126;SDS011;17775;57.948;12.514;2022-09-29T03:06:43;5.10;;;2.47;;
31126;SDS011;17775;57.948;12.514;2022-09-29T03:09:10;6.18;;;2.47;;
31126;SDS011;17775;57.948;12.514;2022-09-29T03:11:36;6.80;;;2.50;;
31126;SDS011;17775;57.948;12.514;2022-09-29T03:14:02;5.35;;;2.58;;
31126;SDS011;17775;57.948;12.514;2022-09-29T03:16:29;5.35;;;2.47;;
31126;SDS011;17775;57.948;12.514;2022-09-29T03:18:55;3.63;;;2.15;;
31126;SDS011;17775;57.948;12.514;2022-09-29T03:21:22;4.60;;;2.22;;
31126;SDS011;17775;57.948;12.514;2022-09-29T03:23:48;5.03;;;2.35;;
31126;SDS011;17775;57.948;12.514;2022-09-29T03:26:20;3.65;;;2.28;;
31126;SDS011;17775;57.948;12.514;2022-09-29T03:28:46;5.63;;;2.50;;
31126;SDS011;17775;57.948;12.514;2022-09-29T03:31:13;3.72;;;2.08;;
31126;SDS011;17775;57.948;12.514;2022-09-29T03:33:39;5.95;;;2.58;;
31126;SDS011;17775;57.948;12.514;2022-09-29T03:36:06;3.50;;;2.30;;
31126;SDS011;17775;57.948;12.514;2022-09-29T03:38:34;6.50;;;2.65;;
31126;SDS011;17775;57.948;12.514;2022-09-29T03:41:00;3.70;;;1.85;;
31126;SDS011;17775;57.948;12.514;2022-09-29T03:43:27;5.80;;;2.20;;
31126;SDS011;17775;57.948;12.514;2022-09-29T03:45:54;5.80;;;2.58;;
31126;SDS011;17775;57.948;12.514;2022-09-29T03:48:24;3.90;;;2.30;;
31126;SDS011;17775;57.948;12.514;2022-09-29T03:50:52;4.32;;;2.40;;
31126;SDS011;17775;57.948;12.514;2022-09-29T03:53:20;4.03;;;2.33;;
31126;SDS011;17775;57.948;12.514;2022-09-29T03:55:47;4.45;;;2.35;;
31126;SDS011;17775;57.948;12.514;2022-09-29T03:58:14;4.88;;;2.45;;
31126;SDS011;17775;57.948;12.514;2022-09-29T04:00:41;5.80;;;2.50;;
31126;SDS011;17775;57.948;12.514;2022-09-29T04:03:07;5.95;;;2.28;;
31126;SDS011;17775;57.948;12.514;2022-09-29T04:05:38;6.10;;;2.50;;
31126;SDS011;17775;57.948;12.514;2022-09-29T04:08:04;4.32;;;2.95;;
31126;SDS011;17775;57.948;12.514;2022-09-29T04:10:40;4.55;;;2.13;;
31126;SDS011;17775;57.948;12.514;2022-09-29T04:13:07;4.13;;;2.35;;
31126;SDS011;17775;57.948;12.514;2022-09-29T04:15:33;4.00;;;2.58;;
31126;SDS011;17775;57.948;12.514;2022-09-29T04:18:01;4.78;;;2.15;;
31126;SDS011;17775;57.948;12.514;2022-09-29T04:20:28;4.03;;;2.13;;
31126;SDS011;17775;57.948;12.514;2022-09-29T04:22:54;4.72;;;2.70;;
31126;SDS011;17775;57.948;12.514;2022-09-29T04:25:20;11.05;;;3.45;;
31126;SDS011;17775;57.948;12.514;2022-09-29T04:27:47;4.18;;;2.33;;
31126;SDS011;17775;57.948;12.514;2022-09-29T04:30:13;5.35;;;2.80;;
31126;SDS011;17775;57.948;12.514;2022-09-29T04:32:40;6.38;;;2.95;;
31126;SDS011;17775;57.948;12.514;2022-09-29T04:35:07;5.28;;;2.50;;
31126;SDS011;17775;57.948;12.514;2022-09-29T04:37:34;4.63;;;3.15;;
31126;SDS011;17775;57.948;12.514;2022-09-29T04:40:00;4.30;;;2.65;;
31126;SDS011;17775;57.948;12.514;2022-09-29T04:42:28;3.85;;;2.35;;
31126;SDS011;17775;57.948;12.514;2022-09-29T04:44:54;4.40;;;2.67;;
31126;SDS011;17775;57.948;12.514;2022-09-29T04:47:21;5.22;;;2.55;;
31126;SDS011;17775;57.948;12.514;2022-09-29T04:49:47;4.18;;;2.60;;
31126;SDS011;17775;57.948;12.514;2022-09-29T04:52:14;6.22;;;2.80;;
31126;SDS011;17775;57.948;12.514;2022-09-29T04:54:40;5.97;;;2.60;;
31126;SDS011;17775;57.948;12.514;2022-09-29T04:57:06;4.32;;;2.40;;
31126;SDS011;17775;57.948;12.514;2022-09-29T04:59:35;5.72;;;2.78;;
31126;SDS011;17775;57.948;12.514;2022-09-29T05:02:01;6.28;;;2.72;;
31126;SDS011;17775;57.948;12.514;2022-09-29T05:04:28;5.93;;;2.75;;
31126;SDS011;17775;57.948;12.514;2022-09-29T05:06:54;4.53;;;2.67;;
31126;SDS011;17775;57.948;12.514;2022-09-29T05:09:21;9.00;;;2.92;;
31126;SDS011;17775;57.948;12.514;2022-09-29T05:11:50;6.07;;;3.00;;
31126;SDS011;17775;57.948;12.514;2022-09-29T05:14:16;4.22;;;2.45;;
31126;SDS011;17775;57.948;12.514;2022-09-29T05:16:43;5.18;;;2.85;;
31126;SDS011;17775;57.948;12.514;2022-09-29T05:19:09;7.57;;;3.10;;
31126;SDS011;17775;57.948;12.514;2022-09-29T05:21:36;7.25;;;2.53;;
31126;SDS011;17775;57.948;12.514;2022-09-29T05:24:02;5.00;;;2.50;;
31126;SDS011;17775;57.948;12.514;2022-09-29T05:26:29;5.90;;;2.60;;
31126;SDS011;17775;57.948;12.514;2022-09-29T05:28:55;6.53;;;2.83;;
31126;SDS011;17775;57.948;12.514;2022-09-29T05:31:21;6.38;;;3.17;;
31126;SDS011;17775;57.948;12.514;2022-09-29T05:33:48;5.05;;;2.45;;
31126;SDS011;17775;57.948;12.514;2022-09-29T05:36:14;5.90;;;3.47;;
31126;SDS011;17775;57.948;12.514;2022-09-29T05:38:44;4.82;;;2.65;;
31126;SDS011;17775;57.948;12.514;2022-09-29T05:41:11;6.40;;;2.67;;
31126;SDS011;17775;57.948;12.514;2022-09-29T05:43:38;4.45;;;2.40;;
31126;SDS011;17775;57.948;12.514;2022-09-29T05:46:05;5.95;;;3.03;;
31126;SDS011;17775;57.948;12.514;2022-09-29T05:48:32;6.40;;;3.00;;
31126;SDS011;17775;57.948;12.514;2022-09-29T05:50:59;4.47;;;2.60;;
31126;SDS011;17775;57.948;12.514;2022-09-29T05:53:31;4.85;;;2.70;;
31126;SDS011;17775;57.948;12.514;2022-09-29T05:55:58;6.00;;;2.83;;
31126;SDS011;17775;57.948;12.514;2022-09-29T05:58:24;6.57;;;3.22;;
31126;SDS011;17775;57.948;12.514;2022-09-29T06:00:50;6.07;;;3.17;;
31126;SDS011;17775;57.948;12.514;2022-09-29T06:03:17;4.75;;;2.70;;
31126;SDS011;17775;57.948;12.514;2022-09-29T06:05:43;5.03;;;2.90;;
31126;SDS011;17775;57.948;12.514;2022-09-29T06:08:09;4.47;;;2.45;;
31126;SDS011;17775;57.948;12.514;2022-09-29T06:10:37;5.63;;;2.83;;
31126;SDS011;17775;57.948;12.514;2022-09-29T06:13:07;4.80;;;2.47;;
31126;SDS011;17775;57.948;12.514;2022-09-29T06:15:33;4.83;;;2.60;;
31126;SDS011;17775;57.948;12.514;2022-09-29T06:18:00;5.28;;;2.35;;
31126;SDS011;17775;57.948;12.514;2022-09-29T06:20:26;5.72;;;2.55;;
31126;SDS011;17775;57.948;12.514;2022-09-29T06:22:53;3.90;;;2.20;;
31126;SDS011;17775;57.948;12.514;2022-09-29T06:25:20;4.43;;;2.30;;
31126;SDS011;17775;57.948;12.514;2022-09-29T06:27:47;5.43;;;2.60;;
31126;SDS011;17775;57.948;12.514;2022-09-29T06:30:13;4.43;;;2.78;;
31126;SDS011;17775;57.948;12.514;2022-09-29T06:32:40;4.57;;;2.28;;
31126;SDS011;17775;57.948;12.514;2022-09-29T06:35:06;5.00;;;2.60;;
31126;SDS011;17775;57.948;12.514;2022-09-29T06:37:52;5.28;;;2.45;;
31126;SDS011;17775;57.948;12.514;2022-09-29T06:40:20;6.90;;;2.50;;
31126;SDS011;17775;57.948;12.514;2022-09-29T06:42:48;3.67;;;2.20;;
31126;SDS011;17775;57.948;12.514;2022-09-29T06:45:15;4.95;;;2.90;;
31126;SDS011;17775;57.948;12.514;2022-09-29T06:47:46;3.97;;;2.45;;
31126;SDS011;17775;57.948;12.514;2022-09-29T06:50:13;4.55;;;2.17;;
31126;SDS011;17775;57.948;12.514;2022-09-29T06:52:41;3.92;;;2.22;;
31126;SDS011;17775;57.948;12.514;2022-09-29T06:55:17;3.90;;;2.17;;
31126;SDS011;17775;57.948;12.514;2022-09-29T06:57:44;4.35;;;2.63;;
31126;SDS011;17775;57.948;12.514;2022-09-29T07:00:10;5.38;;;2.47;;
31126;SDS011;17775;57.948;12.514;2022-09-29T07:02:37;4.22;;;2.40;;
31126;SDS011;17775;57.948;12.514;2022-09-29T07:05:03;5.30;;;2.58;;
31126;SDS011;17775;57.948;12.514;2022-09-29T07:07:33;6.07;;;2.53;;
31126;SDS011;17775;57.948;12.514;2022-09-29T07:09:59;4.80;;;2.50;;
31126;SDS011;17775;57.948;12.514;2022-09-29T07:12:26;3.45;;;2.22;;
31126;SDS011;17775;57.948;12.514;2022-09-29T07:14:52;4.13;;;2.53;;
31126;SDS011;17775;57.948;12.514;2022-09-29T07:17:19;4.45;;;2.38;;
31126;SDS011;17775;57.948;12.514;2022-09-29T07:19:45;5.35;;;2.20;;
31126;SDS011;17775;57.948;12.514;2022-09-29T07:22:12;3.45;;;2.38;;
31126;SDS011;17775;57.948;12.514;2022-09-29T07:24:38;3.65;;;2.45;;
31126;SDS011;17775;57.948;12.514;2022-09-29T07:27:05;3.45;;;2.33;;
31126;SDS011;17775;57.948;12.514;2022-09-29T07:29:34;4.57;;;2.25;;
31126;SDS011;17775;57.948;12.514;2022-09-29T07:32:01;3.92;;;2.20;;
31126;SDS011;17775;57.948;12.514;2022-09-29T07:34:27;7.07;;;2.95;;
31126;SDS011;17775;57.948;12.514;2022-09-29T07:36:53;6.55;;;2.42;;
31126;SDS011;17775;57.948;12.514;2022-09-29T07:39:20;5.93;;;2.67;;
31126;SDS011;17775;57.948;12.514;2022-09-29T07:41:47;3.55;;;2.28;;
31126;SDS011;17775;57.948;12.514;2022-09-29T07:44:14;5.45;;;2.60;;
31126;SDS011;17775;57.948;12.514;2022-09-29T07:46:40;4.80;;;2.30;;
31126;SDS011;17775;57.948;12.514;2022-09-29T07:49:07;3.35;;;2.05;;
31126;SDS011;17775;57.948;12.514;2022-09-29T07:51:33;4.75;;;2.40;;
31126;SDS011;17775;57.948;12.514;2022-09-29T07:54:00;7.20;;;2.20;;
31126;SDS011;17775;57.948;12.514;2022-09-29T07:56:27;4.10;;;2.20;;
31126;SDS011;17775;57.948;12.514;2022-09-29T07:58:54;3.92;;;2.13;;
31126;SDS011;17775;57.948;12.514;2022-09-29T08:01:20;3.25;;;1.95;;
31126;SDS011;17775;57.948;12.514;2022-09-29T08:03:48;3.55;;;2.10;;
31126;SDS011;17775;57.948;12.514;2022-09-29T08:06:19;3.78;;;2.10;;
31126;SDS011;17775;57.948;12.514;2022-09-29T08:08:46;3.63;;;1.98;;
31126;SDS011;17775;57.948;12.514;2022-09-29T08:11:28;4.50;;;2.05;;
31126;SDS011;17775;57.948;12.514;2022-09-29T08:13:57;3.95;;;2.30;;
31126;SDS011;17775;57.948;12.514;2022-09-29T08:16:24;3.67;;;2.25;;
31126;SDS011;17775;57.948;12.514;2022-09-29T08:18:50;3.63;;;2.05;;
31126;SDS011;17775;57.948;12.514;2022-09-29T08:21:16;5.35;;;2.20;;
31126;SDS011;17775;57.948;12.514;2022-09-29T08:23:43;4.63;;;2.70;;
31126;SDS011;17775;57.948;12.514;2022-09-29T08:26:11;3.17;;;2.13;;
31126;SDS011;17775;57.948;12.514;2022-09-29T08:28:37;3.53;;;1.95;;
31126;SDS011;17775;57.948;12.514;2022-09-29T08:31:05;3.92;;;1.70;;
31126;SDS011;17775;57.948;12.514;2022-09-29T08:33:32;4.03;;;1.90;;
31126;SDS011;17775;57.948;12.514;2022-09-29T08:35:59;3.45;;;2.05;;
31126;SDS011;17775;57.948;12.514;2022-09-29T08:38:26;3.40;;;2.20;;
31126;SDS011;17775;57.948;12.514;2022-09-29T08:40:53;4.18;;;2.17;;
31126;SDS011;17775;57.948;12.514;2022-09-29T08:43:38;5.05;;;2.10;;
31126;SDS011;17775;57.948;12.514;2022-09-29T08:48:35;3.00;;;1.75;;
31126;SDS011;17775;57.948;12.514;2022-09-29T08:53:54;3.55;;;1.90;;
31126;SDS011;17775;57.948;12.514;2022-09-29T08:56:28;3.28;;;1.95;;
31126;SDS011;17775;57.948;12.514;2022-09-29T08:58:55;6.03;;;2.30;;
31126;SDS011;17775;57.948;12.514;2022-09-29T09:01:37;5.90;;;1.80;;
31126;SDS011;17775;57.948;12.514;2022-09-29T09:14:53;3.97;;;1.92;;
31126;SDS011;17775;57.948;12.514;2022-09-29T09:25:50;3.53;;;1.67;;
31126;SDS011;17775;57.948;12.514;2022-09-29T09:28:40;3.10;;;1.85;;
31126;SDS011;17775;57.948;12.514;2022-09-29T09:36:46;2.60;;;1.60;;
31126;SDS011;17775;57.948;12.514;2022-09-29T09:40:05;3.22;;;1.70;;
31126;SDS011;17775;57.948;12.514;2022-09-29T09:42:25;3.33;;;1.70;;
31126;SDS011;17775;57.948;12.514;2022-09-29T09:45:03;2.97;;;1.77;;
31126;SDS011;17775;57.948;12.514;2022-09-29T09:47:39;3.78;;;1.55;;
31126;SDS011;17775;57.948;12.514;2022-09-29T09:55:02;3.88;;;1.85;;
31126;SDS011;17775;57.948;12.514;2022-09-29T09:57:37;2.45;;;1.70;;
31126;SDS011;17775;57.948;12.514;2022-09-29T10:02:47;2.08;;;1.42;;
31126;SDS011;17775;57.948;12.514;2022-09-29T10:05:18;3.15;;;1.67;;
31126;SDS011;17775;57.948;12.514;2022-09-29T10:07:45;3.08;;;1.50;;
31126;SDS011;17775;57.948;12.514;2022-09-29T10:10:20;3.97;;;1.77;;
31126;SDS011;17775;57.948;12.514;2022-09-29T10:13:04;4.05;;;1.90;;
31126;SDS011;17775;57.948;12.514;2022-09-29T10:15:32;2.90;;;1.67;;
31126;SDS011;17775;57.948;12.514;2022-09-29T10:20:37;6.70;;;1.40;;
31126;SDS011;17775;57.948;12.514;2022-09-29T10:28:18;3.15;;;1.80;;
31126;SDS011;17775;57.948;12.514;2022-09-29T10:30:45;3.55;;;1.98;;
31126;SDS011;17775;57.948;12.514;2022-09-29T10:33:16;3.65;;;1.70;;
31126;SDS011;17775;57.948;12.514;2022-09-29T10:35:44;2.80;;;1.90;;
31126;SDS011;17775;57.948;12.514;2022-09-29T10:38:15;3.15;;;1.70;;
31126;SDS011;17775;57.948;12.514;2022-09-29T10:43:20;2.78;;;1.60;;
31126;SDS011;17775;57.948;12.514;2022-09-29T10:45:48;4.43;;;1.75;;
31126;SDS011;17775;57.948;12.514;2022-09-29T10:48:15;3.60;;;1.60;;
31126;SDS011;17775;57.948;12.514;2022-09-29T10:50:48;3.42;;;1.52;;
31126;SDS011;17775;57.948;12.514;2022-09-29T10:53:18;3.28;;;1.50;;
31126;SDS011;17775;57.948;12.514;2022-09-29T10:58:20;4.65;;;2.05;;
31126;SDS011;17775;57.948;12.514;2022-09-29T11:01:12;2.33;;;1.40;;
31126;SDS011;17775;57.948;12.514;2022-09-29T11:06:07;2.28;;;1.42;;
31126;SDS011;17775;57.948;12.514;2022-09-29T11:08:52;3.03;;;1.85;;
31126;SDS011;17775;57.948;12.514;2022-09-29T11:11:29;7.03;;;1.92;;
31126;SDS011;17775;57.948;12.514;2022-09-29T11:13:56;3.08;;;1.65;;
31126;SDS011;17775;57.948;12.514;2022-09-29T11:16:25;2.53;;;1.63;;
31126;SDS011;17775;57.948;12.514;2022-09-29T11:18:52;2.45;;;1.63;;
31126;SDS011;17775;57.948;12.514;2022-09-29T11:26:18;2.65;;;1.60;;
31126;SDS011;17775;57.948;12.514;2022-09-29T11:44:59;3.58;;;1.73;;
31126;SDS011;17775;57.948;12.514;2022-09-29T11:55:16;2.40;;;1.67;;
31126;SDS011;17775;57.948;12.514;2022-09-29T12:00:17;3.00;;;1.63;;
31126;SDS011;17775;57.948;12.514;2022-09-29T12:13:10;5.18;;;1.70;;
31126;SDS011;17775;57.948;12.514;2022-09-29T12:18:12;2.70;;;1.60;;
31126;SDS011;17775;57.948;12.514;2022-09-29T12:20:41;2.05;;;1.40;;
31126;SDS011;17775;57.948;12.514;2022-09-29T12:23:09;2.50;;;1.58;;
31126;SDS011;17775;57.948;12.514;2022-09-29T12:25:37;3.63;;;2.10;;
31126;SDS011;17775;57.948;12.514;2022-09-29T12:28:15;2.67;;;1.60;;
31126;SDS011;17775;57.948;12.514;2022-09-29T12:30:49;2.70;;;1.75;;
31126;SDS011;17775;57.948;12.514;2022-09-29T12:33:37;4.32;;;1.60;;
31126;SDS011;17775;57.948;12.514;2022-09-29T12:39:00;2.80;;;1.60;;
31126;SDS011;17775;57.948;12.514;2022-09-29T12:41:34;2.25;;;1.52;;
31126;SDS011;17775;57.948;12.514;2022-09-29T12:44:06;3.30;;;1.60;;
31126;SDS011;17775;57.948;12.514;2022-09-29T12:46:38;3.10;;;1.58;;
31126;SDS011;17775;57.948;12.514;2022-09-29T12:49:10;3.78;;;1.83;;
31126;SDS011;17775;57.948;12.514;2022-09-29T12:51:43;2.85;;;1.70;;
31126;SDS011;17775;57.948;12.514;2022-09-29T12:54:13;2.00;;;1.50;;
31126;SDS011;17775;57.948;12.514;2022-09-29T12:56:43;2.40;;;1.40;;
31126;SDS011;17775;57.948;12.514;2022-09-29T13:01:39;1.77;;;1.38;;
31126;SDS011;17775;57.948;12.514;2022-09-29T13:05:07;3.72;;;1.52;;
31126;SDS011;17775;57.948;12.514;2022-09-29T13:28:44;2.70;;;1.45;;
31126;SDS011;17775;57.948;12.514;2022-09-29T13:31:34;3.22;;;1.42;;
31126;SDS011;17775;57.948;12.514;2022-09-29T13:33:59;3.47;;;1.30;;
31126;SDS011;17775;57.948;12.514;2022-09-29T13:36:28;1.75;;;1.15;;
31126;SDS011;17775;57.948;12.514;2022-09-29T13:38:57;3.85;;;1.50;;
31126;SDS011;17775;57.948;12.514;2022-09-29T13:41:34;3.20;;;1.60;;
31126;SDS011;17775;57.948;12.514;2022-09-29T13:44:05;2.67;;;1.40;;
31126;SDS011;17775;57.948;12.514;2022-09-29T13:51:39;2.93;;;1.20;;
31126;SDS011;17775;57.948;12.514;2022-09-29T13:59:24;2.25;;;1.38;;
31126;SDS011;17775;57.948;12.514;2022-09-29T14:01:51;3.13;;;1.40;;
31126;SDS011;17775;57.948;12.514;2022-09-29T14:05:01;2.00;;;1.00;;
31126;SDS011;17775;57.948;12.514;2022-09-29T14:07:13;2.13;;;1.40;;
31126;SDS011;17775;57.948;12.514;2022-09-29T14:09:40;1.50;;;1.10;;
31126;SDS011;17775;57.948;12.514;2022-09-29T14:12:19;1.50;;;1.13;;
31126;SDS011;17775;57.948;12.514;2022-09-29T14:14:51;1.45;;;1.08;;
31126;SDS011;17775;57.948;12.514;2022-09-29T14:17:31;1.70;;;1.10;;
31126;SDS011;17775;57.948;12.514;2022-09-29T14:27:57;2.33;;;1.00;;
31126;SDS011;17775;57.948;12.514;2022-09-29T14:35:49;1.33;;;1.13;;
31126;SDS011;17775;57.948;12.514;2022-09-29T14:38:23;1.88;;;1.35;;
31126;SDS011;17775;57.948;12.514;2022-09-29T14:40:54;1.10;;;0.85;;
31126;SDS011;17775;57.948;12.514;2022-09-29T14:43:22;2.03;;;1.10;;
31126;SDS011;17775;57.948;12.514;2022-09-29T14:48:41;1.33;;;1.00;;
31126;SDS011;17775;57.948;12.514;2022-09-29T14:51:30;1.52;;;1.00;;
31126;SDS011;17775;57.948;12.514;2022-09-29T14:54:25;1.38;;;0.90;;
31126;SDS011;17775;57.948;12.514;2022-09-29T14:56:59;1.58;;;0.90;;
31126;SDS011;17775;57.948;12.514;2022-09-29T14:59:33;1.48;;;0.98;;
31126;SDS011;17775;57.948;12.514;2022-09-29T15:04:41;1.70;;;1.08;;
31126;SDS011;17775;57.948;12.514;2022-09-29T15:07:12;3.38;;;0.90;;
31126;SDS011;17775;57.948;12.514;2022-09-29T15:09:42;3.60;;;1.20;;
31126;SDS011;17775;57.948;12.514;2022-09-29T15:12:13;2.42;;;0.90;;
31126;SDS011;17775;57.948;12.514;2022-09-29T15:14:40;1.20;;;1.00;;
31126;SDS011;17775;57.948;12.514;2022-09-29T15:27:02;2.88;;;1.27;;
31126;SDS011;17775;57.948;12.514;2022-09-29T15:29:29;1.67;;;0.90;;
31126;SDS011;17775;57.948;12.514;2022-09-29T15:31:56;3.30;;;1.17;;
31126;SDS011;17775;57.948;12.514;2022-09-29T15:34:23;1.20;;;0.80;;
31126;SDS011;17775;57.948;12.514;2022-09-29T15:36:51;2.90;;;1.10;;
31126;SDS011;17775;57.948;12.514;2022-09-29T15:42:01;2.40;;;0.90;;
31126;SDS011;17775;57.948;12.514;2022-09-29T15:44:28;1.65;;;1.20;;
31126;SDS011;17775;57.948;12.514;2022-09-29T15:46:59;2.58;;;1.00;;
31126;SDS011;17775;57.948;12.514;2022-09-29T15:49:29;1.92;;;1.05;;
31126;SDS011;17775;57.948;12.514;2022-09-29T15:51:57;1.52;;;1.00;;
31126;SDS011;17775;57.948;12.514;2022-09-29T15:54:44;2.88;;;1.10;;
31126;SDS011;17775;57.948;12.514;2022-09-29T15:57:28;2.13;;;1.00;;
31126;SDS011;17775;57.948;12.514;2022-09-29T16:01:03;2.97;;;1.00;;
31126;SDS011;17775;57.948;12.514;2022-09-29T16:05:44;1.70;;;1.10;;
31126;SDS011;17775;57.948;12.514;2022-09-29T16:08:21;4.35;;;1.13;;
31126;SDS011;17775;57.948;12.514;2022-09-29T16:10:51;4.20;;;1.10;;
31126;SDS011;17775;57.948;12.514;2022-09-29T16:13:27;1.95;;;0.80;;
31126;SDS011;17775;57.948;12.514;2022-09-29T16:16:00;2.40;;;1.02;;
31126;SDS011;17775;57.948;12.514;2022-09-29T16:21:15;1.52;;;0.88;;
31126;SDS011;17775;57.948;12.514;2022-09-29T16:23:47;1.65;;;0.85;;
31126;SDS011;17775;57.948;12.514;2022-09-29T16:29:01;2.65;;;1.30;;
31126;SDS011;17775;57.948;12.514;2022-09-29T16:31:28;3.50;;;1.42;;
31126;SDS011;17775;57.948;12.514;2022-09-29T16:33:57;4.57;;;1.52;;
31126;SDS011;17775;57.948;12.514;2022-09-29T16:38:52;1.92;;;1.20;;
31126;SDS011;17775;57.948;12.514;2022-09-29T16:47:34;1.83;;;1.27;;
31126;SDS011;17775;57.948;12.514;2022-09-29T16:49:45;2.30;;;1.23;;
31126;SDS011;17775;57.948;12.514;2022-09-29T16:54:39;2.30;;;1.35;;
31126;SDS011;17775;57.948;12.514;2022-09-29T16:57:17;3.50;;;1.50;;
31126;SDS011;17775;57.948;12.514;2022-09-29T16:59:44;1.25;;;1.00;;
31126;SDS011;17775;57.948;12.514;2022-09-29T17:02:11;1.67;;;1.00;;
31126;SDS011;17775;57.948;12.514;2022-09-29T17:04:38;1.88;;;1.10;;
31126;SDS011;17775;57.948;12.514;2022-09-29T17:07:04;2.13;;;1.33;;
31126;SDS011;17775;57.948;12.514;2022-09-29T17:09:31;2.75;;;1.50;;
31126;SDS011;17775;57.948;12.514;2022-09-29T17:11:57;2.28;;;1.15;;
31126;SDS011;17775;57.948;12.514;2022-09-29T17:14:25;2.83;;;1.00;;
31126;SDS011;17775;57.948;12.514;2022-09-29T17:16:51;1.92;;;0.98;;
31126;SDS011;17775;57.948;12.514;2022-09-29T17:19:18;1.88;;;1.08;;
31126;SDS011;17775;57.948;12.514;2022-09-29T17:21:45;1.80;;;1.13;;
31126;SDS011;17775;57.948;12.514;2022-09-29T17:24:12;2.05;;;1.10;;
31126;SDS011;17775;57.948;12.514;2022-09-29T17:26:42;3.63;;;1.08;;
31126;SDS011;17775;57.948;12.514;2022-09-29T17:29:27;2.10;;;1.33;;
31126;SDS011;17775;57.948;12.514;2022-09-29T17:31:54;4.20;;;2.17;;
31126;SDS011;17775;57.948;12.514;2022-09-29T17:34:20;4.63;;;1.98;;
31126;SDS011;17775;57.948;12.514;2022-09-29T17:36:57;4.03;;;1.70;;
31126;SDS011;17775;57.948;12.514;2022-09-29T17:39:25;3.78;;;1.70;;
31126;SDS011;17775;57.948;12.514;2022-09-29T17:41:51;4.40;;;1.92;;
31126;SDS011;17775;57.948;12.514;2022-09-29T17:44:18;5.07;;;1.95;;
31126;SDS011;17775;57.948;12.514;2022-09-29T17:46:44;3.97;;;1.85;;
31126;SDS011;17775;57.948;12.514;2022-09-29T17:49:13;2.83;;;1.55;;
31126;SDS011;17775;57.948;12.514;2022-09-29T17:51:39;2.25;;;1.50;;
31126;SDS011;17775;57.948;12.514;2022-09-29T17:54:06;5.57;;;1.48;;
31126;SDS011;17775;57.948;12.514;2022-09-29T17:56:33;2.33;;;1.23;;
31126;SDS011;17775;57.948;12.514;2022-09-29T17:59:03;1.87;;;1.23;;
31126;SDS011;17775;57.948;12.514;2022-09-29T18:01:31;3.92;;;1.50;;
31126;SDS011;17775;57.948;12.514;2022-09-29T18:04:01;1.88;;;1.23;;
31126;SDS011;17775;57.948;12.514;2022-09-29T18:06:28;1.45;;;1.17;;
31126;SDS011;17775;57.948;12.514;2022-09-29T18:08:54;5.88;;;1.50;;
31126;SDS011;17775;57.948;12.514;2022-09-29T18:11:22;2.47;;;1.50;;
31126;SDS011;17775;57.948;12.514;2022-09-29T18:13:49;3.92;;;2.05;;
31126;SDS011;17775;57.948;12.514;2022-09-29T18:16:17;2.17;;;1.50;;
31126;SDS011;17775;57.948;12.514;2022-09-29T18:18:44;4.15;;;1.70;;
31126;SDS011;17775;57.948;12.514;2022-09-29T18:21:11;2.60;;;1.50;;
31126;SDS011;17775;57.948;12.514;2022-09-29T18:23:37;2.70;;;1.40;;
31126;SDS011;17775;57.948;12.514;2022-09-29T18:26:04;3.45;;;2.00;;
31126;SDS011;17775;57.948;12.514;2022-09-29T18:28:31;3.22;;;1.77;;
31126;SDS011;17775;57.948;12.514;2022-09-29T18:31:05;2.83;;;1.75;;
31126;SDS011;17775;57.948;12.514;2022-09-29T18:33:37;3.15;;;1.73;;
31126;SDS011;17775;57.948;12.514;2022-09-29T18:36:04;3.97;;;2.13;;
31126;SDS011;17775;57.948;12.514;2022-09-29T18:38:30;2.60;;;1.70;;